createdAt,value
2016-05-19T00:00:18.901Z,0
2016-05-19T00:01:18.934Z,0
2016-05-19T00:02:19.000Z,0
2016-05-19T00:03:19.065Z,0
2016-05-19T00:04:18.911Z,0
2016-05-19T00:05:19.101Z,0
2016-05-19T00:06:19.213Z,0
2016-05-19T00:07:19.231Z,0
2016-05-19T00:08:19.250Z,0
2016-05-19T00:09:19.081Z,0
2016-05-19T00:10:19.318Z,0
2016-05-19T00:11:19.320Z,0
2016-05-19T00:12:19.370Z,0
2016-05-19T00:13:19.420Z,0
2016-05-19T00:14:19.470Z,0
2016-05-19T00:15:19.519Z,0
2016-05-19T00:16:19.522Z,0
2016-05-19T00:17:19.603Z,0
2016-05-19T00:18:19.605Z,0
2016-05-19T00:19:19.639Z,0
2016-05-19T00:20:19.532Z,0
2016-05-19T00:21:19.707Z,0
2016-05-19T00:22:19.757Z,0
2016-05-19T00:23:19.571Z,0
2016-05-19T00:24:19.731Z,0
2016-05-19T00:25:19.890Z,0
2016-05-19T00:26:19.782Z,0
2016-05-19T00:27:19.957Z,0
2016-05-19T00:28:20.038Z,0
2016-05-19T00:29:20.026Z,0
2016-05-19T00:30:20.059Z,0
2016-05-19T00:31:20.109Z,0
2016-05-19T00:32:20.173Z,0
2016-05-19T00:33:20.176Z,0
2016-05-19T00:34:20.226Z,0
2016-05-19T00:35:20.276Z,0
2016-05-19T00:36:20.326Z,0
2016-05-19T00:37:20.328Z,0
2016-05-19T00:38:20.862Z,0
2016-05-19T00:39:20.475Z,0
2016-05-19T00:40:20.461Z,0
2016-05-19T00:41:20.495Z,0
2016-05-19T00:42:20.592Z,0
2016-05-19T00:43:20.625Z,0
2016-05-19T00:44:20.613Z,0
2016-05-19T00:45:20.647Z,0
2016-05-19T00:46:20.524Z,0
2016-05-19T00:47:20.730Z,0
2016-05-19T00:48:20.608Z,0
2016-05-19T00:49:20.641Z,0
2016-05-19T00:50:20.863Z,0
2016-05-19T00:51:20.882Z,0
2016-05-19T00:52:20.930Z,0
2016-05-19T00:53:21.137Z,0
2016-05-19T00:54:20.999Z,0
2016-05-19T00:55:21.049Z,0
2016-05-19T00:56:21.067Z,0
2016-05-19T00:57:21.163Z,0
2016-05-19T00:58:21.150Z,0
2016-05-19T00:59:21.185Z,0
2016-05-19T01:00:21.281Z,0
2016-05-19T01:01:21.298Z,0
2016-05-19T01:02:21.317Z,0
2016-05-19T01:03:21.351Z,0
2016-05-19T01:04:21.385Z,0
2016-05-19T01:05:21.435Z,0
2016-05-19T01:06:21.312Z,0
2016-05-19T01:07:21.362Z,0
2016-05-19T01:08:21.756Z,0
2016-05-19T01:09:21.586Z,0
2016-05-19T01:10:21.651Z,0
2016-05-19T01:11:21.669Z,0
2016-05-19T01:12:21.563Z,0
2016-05-19T01:13:21.737Z,0
2016-05-19T01:14:21.678Z,0
2016-05-19T01:15:21.852Z,0
2016-05-19T01:16:21.870Z,0
2016-05-19T01:17:21.889Z,0
2016-05-19T01:18:21.986Z,0
2016-05-19T01:19:21.832Z,0
2016-05-19T01:20:22.005Z,0
2016-05-19T01:21:22.088Z,0
2016-05-19T01:22:22.106Z,0
2016-05-19T01:23:22.093Z,0
2016-05-19T01:24:22.188Z,0
2016-05-19T01:25:22.129Z,0
2016-05-19T01:26:22.272Z,0
2016-05-19T01:27:22.135Z,0
2016-05-19T01:28:22.340Z,0
2016-05-19T01:29:22.359Z,0
2016-05-19T01:30:22.408Z,0
2016-05-19T01:31:22.426Z,0
2016-05-19T01:32:22.507Z,0
2016-05-19T01:33:22.526Z,0
2016-05-19T01:34:22.543Z,0
2016-05-19T01:35:22.593Z,0
2016-05-19T01:36:22.674Z,0
2016-05-19T01:37:22.520Z,0
2016-05-19T01:38:22.821Z,0
2016-05-19T01:39:22.791Z,0
2016-05-19T01:40:22.809Z,0
2016-05-19T01:41:22.828Z,0
2016-05-19T01:42:22.706Z,0
2016-05-19T01:43:22.959Z,0
2016-05-19T01:44:22.978Z,0
2016-05-19T01:45:22.980Z,0
2016-05-19T01:46:23.014Z,0
2016-05-19T01:47:23.078Z,0
2016-05-19T01:48:23.113Z,0
2016-05-19T01:49:23.163Z,0
2016-05-19T01:50:23.166Z,0
2016-05-19T01:51:23.277Z,0
2016-05-19T01:52:23.139Z,0
2016-05-19T01:53:23.064Z,0
2016-05-19T01:54:23.207Z,0
2016-05-19T01:55:23.397Z,0
2016-05-19T01:56:23.150Z,0
2016-05-19T01:57:23.449Z,0
2016-05-19T01:58:23.343Z,0
2016-05-19T01:59:23.533Z,0
2016-05-19T02:00:23.567Z,0
2016-05-19T02:01:23.616Z,0
2016-05-19T02:02:23.650Z,0
2016-05-19T02:03:23.684Z,0
2016-05-19T02:04:23.563Z,0
2016-05-19T02:05:23.784Z,0
2016-05-19T02:06:23.833Z,0
2016-05-19T02:07:23.679Z,0
2016-05-19T02:08:23.760Z,0
2016-05-19T02:09:23.920Z,0
2016-05-19T02:10:23.954Z,0
2016-05-19T02:11:23.831Z,0
2016-05-19T02:12:24.037Z,0
2016-05-19T02:13:24.118Z,0
2016-05-19T02:14:24.105Z,0
2016-05-19T02:15:24.154Z,0
2016-05-19T02:16:24.203Z,0
2016-05-19T02:17:24.238Z,0
2016-05-19T02:18:24.256Z,0
2016-05-19T02:19:24.133Z,0
2016-05-19T02:20:24.339Z,0
2016-05-19T02:21:24.374Z,0
2016-05-19T02:22:24.407Z,0
2016-05-19T02:23:24.144Z,0
2016-05-19T02:24:24.624Z,0
2016-05-19T02:25:24.533Z,0
2016-05-19T02:26:24.566Z,0
2016-05-19T02:27:24.679Z,0
2016-05-19T02:28:24.650Z,0
2016-05-19T02:29:24.685Z,0
2016-05-19T02:30:24.733Z,0
2016-05-19T02:31:24.783Z,0
2016-05-19T02:32:24.817Z,0
2016-05-19T02:33:24.710Z,4
2016-05-19T02:34:24.744Z,4
2016-05-19T02:35:24.982Z,0
2016-05-19T02:36:24.968Z,0
2016-05-19T02:37:25.002Z,4
2016-05-19T02:38:25.240Z,4
2016-05-19T02:39:25.101Z,0
2016-05-19T02:40:25.163Z,4
2016-05-19T02:41:25.069Z,4
2016-05-19T02:42:25.318Z,4
2016-05-19T02:43:25.396Z,8
2016-05-19T02:44:25.302Z,4
2016-05-19T02:45:25.375Z,4
2016-05-19T02:46:25.613Z,8
2016-05-19T02:47:25.630Z,12
2016-05-19T02:48:25.399Z,12
2016-05-19T02:49:25.792Z,8
2016-05-19T02:50:25.819Z,12
2016-05-19T02:51:25.578Z,16
2016-05-19T02:52:25.884Z,20
2016-05-19T02:53:25.828Z,20
2016-05-19T02:54:25.993Z,24
2016-05-19T02:55:25.859Z,28
2016-05-19T02:56:25.911Z,32
2016-05-19T02:57:25.962Z,36
2016-05-19T02:58:26.154Z,44
2016-05-19T02:59:26.190Z,48
2016-05-19T03:00:26.257Z,52
2016-05-19T03:01:26.135Z,60
2016-05-19T03:02:26.169Z,68
2016-05-19T03:03:26.329Z,76
2016-05-19T03:04:26.223Z,84
2016-05-19T03:05:26.477Z,92
2016-05-19T03:06:26.464Z,104
2016-05-19T03:07:26.341Z,116
2016-05-19T03:08:26.814Z,128
2016-05-19T03:09:26.582Z,140
2016-05-19T03:10:26.616Z,152
2016-05-19T03:11:26.650Z,168
2016-05-19T03:12:26.763Z,184
2016-05-19T03:13:26.609Z,204
2016-05-19T03:14:26.753Z,216
2016-05-19T03:15:26.864Z,232
2016-05-19T03:16:26.727Z,248
2016-05-19T03:17:26.761Z,264
2016-05-19T03:18:26.763Z,284
2016-05-19T03:19:26.703Z,300
2016-05-19T03:20:26.863Z,320
2016-05-19T03:21:27.037Z,340
2016-05-19T03:22:26.915Z,360
2016-05-19T03:23:27.698Z,384
2016-05-19T03:24:27.029Z,412
2016-05-19T03:25:27.188Z,440
2016-05-19T03:26:27.159Z,472
2016-05-19T03:27:27.412Z,500
2016-05-19T03:28:27.321Z,524
2016-05-19T03:29:27.090Z,548
2016-05-19T03:30:27.420Z,568
2016-05-19T03:31:27.454Z,596
2016-05-19T03:32:27.457Z,620
2016-05-19T03:33:27.491Z,648
2016-05-19T03:34:27.385Z,680
2016-05-19T03:35:27.621Z,708
2016-05-19T03:36:27.468Z,740
2016-05-19T03:37:27.517Z,768
2016-05-19T03:38:27.566Z,804
2016-05-19T03:39:27.461Z,836
2016-05-19T03:40:27.634Z,868
2016-05-19T03:41:27.731Z,904
2016-05-19T03:42:27.718Z,944
2016-05-19T03:43:27.877Z,980
2016-05-19T03:44:27.770Z,1024
2016-05-19T03:45:28.022Z,1076
2016-05-19T03:46:27.900Z,1120
2016-05-19T03:47:28.044Z,1164
2016-05-19T03:48:28.063Z,1208
2016-05-19T03:49:28.159Z,1252
2016-05-19T03:50:28.161Z,1288
2016-05-19T03:51:28.196Z,1324
2016-05-19T03:52:28.277Z,1356
2016-05-19T03:53:28.561Z,1392
2016-05-19T03:54:28.360Z,1428
2016-05-19T03:55:28.035Z,1472
2016-05-19T03:56:28.412Z,1512
2016-05-19T03:57:28.305Z,1552
2016-05-19T03:58:28.465Z,1592
2016-05-19T03:59:28.498Z,1632
2016-05-19T04:00:28.470Z,1676
2016-05-19T04:01:28.597Z,1720
2016-05-19T04:02:28.631Z,1756
2016-05-19T04:03:28.509Z,1796
2016-05-19T04:04:28.590Z,1828
2016-05-19T04:05:28.780Z,1852
2016-05-19T04:06:28.798Z,1876
2016-05-19T04:07:28.848Z,1900
2016-05-19T04:08:29.023Z,1928
2016-05-19T04:09:28.729Z,1956
2016-05-19T04:10:28.934Z,1984
2016-05-19T04:11:29.015Z,2020
2016-05-19T04:12:28.893Z,2056
2016-05-19T04:13:29.036Z,2092
2016-05-19T04:14:29.147Z,2128
2016-05-19T04:15:29.182Z,2168
2016-05-19T04:16:29.153Z,2200
2016-05-19T04:17:29.094Z,2240
2016-05-19T04:18:29.080Z,2268
2016-05-19T04:19:29.271Z,2292
2016-05-19T04:20:29.382Z,2316
2016-05-19T04:21:29.385Z,2344
2016-05-19T04:22:29.279Z,2364
2016-05-19T04:23:29.297Z,2392
2016-05-19T04:24:29.472Z,2420
2016-05-19T04:25:29.365Z,2448
2016-05-19T04:26:29.587Z,2480
2016-05-19T04:27:29.590Z,2516
2016-05-19T04:28:29.468Z,2548
2016-05-19T04:29:29.688Z,2588
2016-05-19T04:30:29.691Z,2632
2016-05-19T04:31:29.741Z,2676
2016-05-19T04:32:29.649Z,2728
2016-05-19T04:33:29.840Z,2772
2016-05-19T04:34:29.842Z,2820
2016-05-19T04:35:29.907Z,2868
2016-05-19T04:36:29.645Z,2920
2016-05-19T04:37:29.834Z,2968
2016-05-19T04:38:29.838Z,3008
2016-05-19T04:39:30.090Z,3052
2016-05-19T04:40:30.092Z,3108
2016-05-19T04:41:30.112Z,3160
2016-05-19T04:42:30.161Z,3216
2016-05-19T04:43:30.211Z,3264
2016-05-19T04:44:30.291Z,3312
2016-05-19T04:45:30.278Z,3352
2016-05-19T04:46:30.311Z,3392
2016-05-19T04:47:30.222Z,3424
2016-05-19T04:48:30.380Z,3456
2016-05-19T04:49:30.430Z,3480
2016-05-19T04:50:30.480Z,3492
2016-05-19T04:51:30.513Z,3504
2016-05-19T04:52:30.547Z,3516
2016-05-19T04:53:30.909Z,3520
2016-05-19T04:54:30.491Z,3540
2016-05-19T04:55:30.665Z,3560
2016-05-19T04:56:30.698Z,3572
2016-05-19T04:57:30.608Z,3580
2016-05-19T04:58:30.469Z,3588
2016-05-19T04:59:30.691Z,3600
2016-05-19T05:00:30.850Z,3620
2016-05-19T05:01:30.884Z,3628
2016-05-19T05:02:30.949Z,3644
2016-05-19T05:03:30.982Z,3664
2016-05-19T05:04:31.001Z,3672
2016-05-19T05:05:31.067Z,3700
2016-05-19T05:06:31.101Z,3720
2016-05-19T05:07:31.118Z,3736
2016-05-19T05:08:31.215Z,3748
2016-05-19T05:09:31.203Z,3764
2016-05-19T05:10:31.830Z,3788
2016-05-19T05:11:31.629Z,3796
2016-05-19T05:12:31.351Z,3812
2016-05-19T05:13:31.839Z,3820
2016-05-19T05:14:32.403Z,3824
2016-05-19T05:15:31.656Z,3828
2016-05-19T05:16:31.206Z,3844
2016-05-19T05:17:31.395Z,3844
2016-05-19T05:18:31.930Z,3860
2016-05-19T05:19:31.605Z,3864
2016-05-19T05:20:31.747Z,3864
2016-05-19T05:21:31.531Z,3876
2016-05-19T05:22:31.565Z,3876
2016-05-19T05:23:32.021Z,3868
2016-05-19T05:24:31.915Z,3868
2016-05-19T05:25:31.824Z,3864
2016-05-19T05:26:32.029Z,3856
2016-05-19T05:27:32.157Z,3840
2016-05-19T05:28:31.988Z,3836
2016-05-19T05:29:32.085Z,3832
2016-05-19T05:30:32.087Z,3832
2016-05-19T05:31:32.090Z,3828
2016-05-19T05:32:32.296Z,3828
2016-05-19T05:33:31.907Z,3832
2016-05-19T05:34:32.223Z,3840
2016-05-19T05:35:32.226Z,3844
2016-05-19T05:36:32.259Z,3848
2016-05-19T05:37:32.324Z,3840
2016-05-19T05:38:32.546Z,3824
2016-05-19T05:39:32.221Z,3800
2016-05-19T05:40:32.426Z,3812
2016-05-19T05:41:32.320Z,3840
2016-05-19T05:42:32.354Z,3892
2016-05-19T05:43:32.404Z,3968
2016-05-19T05:44:32.609Z,4028
2016-05-19T05:45:32.503Z,4060
2016-05-19T05:46:32.661Z,4088
2016-05-19T05:47:32.695Z,4108
2016-05-19T05:48:34.088Z,4128
2016-05-19T05:49:32.998Z,4160
2016-05-19T05:50:32.688Z,4180
2016-05-19T05:51:32.847Z,4208
2016-05-19T05:52:32.944Z,4236
2016-05-19T05:53:33.367Z,4256
2016-05-19T05:54:33.027Z,4280
2016-05-19T05:55:32.905Z,4308
2016-05-19T05:56:32.922Z,4332
2016-05-19T05:57:33.097Z,4356
2016-05-19T05:58:33.130Z,4352
2016-05-19T05:59:33.227Z,4396
2016-05-19T06:00:33.215Z,4452
2016-05-19T06:01:33.264Z,4516
2016-05-19T06:02:33.299Z,4564
2016-05-19T06:03:33.316Z,4608
2016-05-19T06:04:33.210Z,4656
2016-05-19T06:05:33.416Z,4716
2016-05-19T06:06:33.449Z,4764
2016-05-19T06:07:33.609Z,4836
2016-05-19T06:08:33.517Z,4884
2016-05-19T06:09:33.598Z,4900
2016-05-19T06:10:33.617Z,4944
2016-05-19T06:11:33.712Z,5004
2016-05-19T06:12:33.684Z,5080
2016-05-19T06:13:33.796Z,5180
2016-05-19T06:14:33.815Z,5260
2016-05-19T06:15:33.881Z,5416
2016-05-19T06:16:34.023Z,5500
2016-05-19T06:17:33.901Z,5596
2016-05-19T06:18:33.950Z,5692
2016-05-19T06:19:34.031Z,5760
2016-05-19T06:20:34.002Z,5836
2016-05-19T06:21:34.068Z,5900
2016-05-19T06:22:40.164Z,5968
2016-05-19T06:23:34.542Z,6032
2016-05-19T06:24:34.201Z,6088
2016-05-19T06:25:34.720Z,6132
2016-05-19T06:26:34.425Z,6208
2016-05-19T06:27:38.068Z,6276
2016-05-19T06:28:35.290Z,6340
2016-05-19T06:29:41.293Z,6384
2016-05-19T06:30:37.951Z,6424
2016-05-19T06:31:38.627Z,6464
2016-05-19T06:32:37.316Z,6516
2016-05-19T06:33:38.600Z,6564
2016-05-19T06:34:41.291Z,6600
2016-05-19T06:35:37.840Z,6636
2016-05-19T06:36:37.608Z,6676
2016-05-19T06:37:36.767Z,6712
2016-05-19T06:38:36.473Z,6740
2016-05-19T06:39:36.695Z,6772
2016-05-19T06:40:36.041Z,6808
2016-05-19T06:41:35.653Z,6868
2016-05-19T06:42:36.671Z,6928
2016-05-19T06:43:36.627Z,6976
2016-05-19T06:44:36.912Z,7048
2016-05-19T06:45:36.632Z,7108
2016-05-19T06:46:35.854Z,7168
2016-05-19T06:47:36.373Z,7192
2016-05-19T06:48:36.484Z,7264
2016-05-19T06:49:36.486Z,7316
2016-05-19T06:50:36.849Z,7356
2016-05-19T06:51:35.914Z,7400
2016-05-19T06:52:35.558Z,7452
2016-05-19T06:53:36.404Z,7480
2016-05-19T06:54:36.000Z,7504
2016-05-19T06:55:35.909Z,7548
2016-05-19T06:56:35.491Z,7556
2016-05-19T06:57:35.681Z,7652
2016-05-19T06:58:35.479Z,7668
2016-05-19T06:59:36.436Z,7740
2016-05-19T07:00:35.579Z,7780
2016-05-19T07:01:35.660Z,7884
2016-05-19T07:02:35.849Z,7992
2016-05-19T07:03:35.977Z,8080
2016-05-19T07:04:35.715Z,8164
2016-05-19T07:05:38.780Z,8248
2016-05-19T07:06:36.485Z,8304
2016-05-19T07:07:37.660Z,8400
2016-05-19T07:08:37.804Z,8488
2016-05-19T07:09:35.978Z,8604
2016-05-19T07:10:35.887Z,8736
2016-05-19T07:11:36.515Z,8848
2016-05-19T07:12:37.798Z,8952
2016-05-19T07:13:36.270Z,9084
2016-05-19T07:14:36.039Z,9192
2016-05-19T07:15:36.416Z,9280
2016-05-19T07:16:36.387Z,9380
2016-05-19T07:17:37.734Z,9504
2016-05-19T07:18:36.378Z,9568
2016-05-19T07:19:36.692Z,9664
2016-05-19T07:20:36.461Z,9796
2016-05-19T07:21:37.011Z,9908
2016-05-19T07:22:36.669Z,10000
2016-05-19T07:23:37.766Z,10076
2016-05-19T07:24:37.050Z,10136
2016-05-19T07:25:36.975Z,10216
2016-05-19T07:26:38.133Z,10296
2016-05-19T07:27:36.792Z,10376
2016-05-19T07:28:37.686Z,10440
2016-05-19T07:29:36.845Z,10504
2016-05-19T07:30:36.878Z,10576
2016-05-19T07:31:37.600Z,10648
2016-05-19T07:32:40.368Z,10704
2016-05-19T07:33:40.043Z,10780
2016-05-19T07:34:40.311Z,10876
2016-05-19T07:35:41.689Z,10968
2016-05-19T07:36:37.129Z,11060
2016-05-19T07:37:37.007Z,11188
2016-05-19T07:38:37.212Z,11284
2016-05-19T07:39:37.168Z,11400
2016-05-19T07:40:37.312Z,11488
2016-05-19T07:41:37.173Z,11624
2016-05-19T07:42:37.364Z,11764
2016-05-19T07:43:37.460Z,11864
2016-05-19T07:44:37.915Z,11944
2016-05-19T07:45:37.841Z,12028
2016-05-19T07:46:37.687Z,12100
2016-05-19T07:47:37.627Z,12144
2016-05-19T07:48:37.631Z,12200
2016-05-19T07:49:37.774Z,12276
2016-05-19T07:50:38.729Z,12356
2016-05-19T07:51:37.607Z,12388
2016-05-19T07:52:37.797Z,12460
2016-05-19T07:53:37.784Z,12540
2016-05-19T07:54:37.942Z,12616
2016-05-19T07:55:37.945Z,12704
2016-05-19T07:56:37.948Z,12768
2016-05-19T07:57:38.451Z,12820
2016-05-19T07:58:38.828Z,12864
2016-05-19T07:59:38.691Z,12940
2016-05-19T08:00:38.381Z,13028
2016-05-19T08:01:38.524Z,13112
2016-05-19T08:02:38.371Z,13208
2016-05-19T08:03:38.451Z,13304
2016-05-19T08:04:38.298Z,13412
2016-05-19T08:05:38.551Z,13532
2016-05-19T08:06:38.366Z,13656
2016-05-19T08:07:38.525Z,13772
2016-05-19T08:08:38.591Z,13864
2016-05-19T08:09:38.499Z,13940
2016-05-19T08:10:38.549Z,14040
2016-05-19T08:11:38.895Z,14108
2016-05-19T08:12:39.882Z,14196
2016-05-19T08:13:39.010Z,14264
2016-05-19T08:14:39.153Z,14344
2016-05-19T08:15:39.453Z,14440
2016-05-19T08:16:39.174Z,14512
2016-05-19T08:17:39.490Z,14572
2016-05-19T08:18:38.882Z,14636
2016-05-19T08:19:38.932Z,14684
2016-05-19T08:20:39.044Z,14708
2016-05-19T08:21:39.015Z,14712
2016-05-19T08:22:39.487Z,14744
2016-05-19T08:23:40.177Z,14736
2016-05-19T08:24:39.148Z,14748
2016-05-19T08:25:39.150Z,14752
2016-05-19T08:26:39.216Z,14776
2016-05-19T08:27:39.297Z,14808
2016-05-19T08:28:40.191Z,14812
2016-05-19T08:29:41.241Z,14808
2016-05-19T08:30:45.336Z,14800
2016-05-19T08:31:40.511Z,14788
2016-05-19T08:32:40.077Z,14784
2016-05-19T08:33:42.313Z,14784
2016-05-19T08:34:43.895Z,14748
2016-05-19T08:35:40.257Z,14704
2016-05-19T08:36:39.588Z,14664
2016-05-19T08:37:39.777Z,14640
2016-05-19T08:38:40.405Z,14628
2016-05-19T08:39:40.735Z,14612
2016-05-19T08:40:40.098Z,14608
2016-05-19T08:41:40.773Z,14640
2016-05-19T08:42:40.322Z,14688
2016-05-19T08:43:40.200Z,14736
2016-05-19T08:44:39.999Z,14796
2016-05-19T08:45:40.471Z,14900
2016-05-19T08:46:40.317Z,14964
2016-05-19T08:47:41.414Z,15028
2016-05-19T08:48:40.056Z,15108
2016-05-19T08:49:40.294Z,15200
2016-05-19T08:50:42.765Z,15276
2016-05-19T08:51:43.034Z,15376
2016-05-19T08:52:41.692Z,15476
2016-05-19T08:53:41.726Z,15600
2016-05-19T08:54:41.386Z,15712
2016-05-19T08:55:41.186Z,15852
2016-05-19T08:56:40.766Z,15976
2016-05-19T08:57:40.612Z,16092
2016-05-19T08:58:41.724Z,16208
2016-05-19T08:59:40.727Z,16324
2016-05-19T09:00:40.730Z,16412
2016-05-19T09:01:41.889Z,16536
2016-05-19T09:02:41.298Z,16800
2016-05-19T09:03:41.878Z,17024
2016-05-19T09:04:40.975Z,17152
2016-05-19T09:05:43.759Z,17344
2016-05-19T09:06:41.683Z,17568
2016-05-19T09:07:43.138Z,17728
2016-05-19T09:08:41.673Z,17920
2016-05-19T09:09:41.519Z,18112
2016-05-19T09:10:43.288Z,18240
2016-05-19T09:11:42.165Z,18368
2016-05-19T09:12:41.138Z,18464
2016-05-19T09:13:41.390Z,18592
2016-05-19T09:14:42.032Z,18656
2016-05-19T09:15:45.990Z,18720
2016-05-19T09:16:41.882Z,18816
2016-05-19T09:17:44.620Z,18912
2016-05-19T09:18:44.418Z,19008
2016-05-19T09:19:42.110Z,19168
2016-05-19T09:20:42.143Z,19296
2016-05-19T09:21:42.426Z,19456
2016-05-19T09:22:41.726Z,19616
2016-05-19T09:23:42.136Z,19744
2016-05-19T09:24:42.248Z,19968
2016-05-19T09:25:41.750Z,20160
2016-05-19T09:26:41.909Z,20384
2016-05-19T09:27:41.974Z,20576
2016-05-19T09:28:42.180Z,20768
2016-05-19T09:29:46.183Z,20928
2016-05-19T09:30:42.092Z,21152
2016-05-19T09:31:42.158Z,21344
2016-05-19T09:32:42.628Z,21536
2016-05-19T09:33:42.241Z,21696
2016-05-19T09:34:43.118Z,21888
2016-05-19T09:35:42.371Z,22048
2016-05-19T09:36:42.670Z,22240
2016-05-19T09:37:42.158Z,22400
2016-05-19T09:38:42.192Z,22528
2016-05-19T09:39:43.038Z,22688
2016-05-19T09:40:42.572Z,22752
2016-05-19T09:41:42.418Z,22816
2016-05-19T09:42:42.655Z,22944
2016-05-19T09:43:42.721Z,23104
2016-05-19T09:44:42.738Z,23232
2016-05-19T09:45:42.851Z,23360
2016-05-19T09:46:42.526Z,23488
2016-05-19T09:47:42.982Z,23584
2016-05-19T09:48:42.890Z,23680
2016-05-19T09:49:42.940Z,23776
2016-05-19T09:50:42.740Z,23840
2016-05-19T09:51:43.117Z,24000
2016-05-19T09:52:42.917Z,24096
2016-05-19T09:53:43.842Z,24192
2016-05-19T09:54:43.312Z,24352
2016-05-19T09:55:44.237Z,24512
2016-05-19T09:56:44.490Z,24640
2016-05-19T09:57:43.305Z,24800
2016-05-19T09:58:43.511Z,25056
2016-05-19T09:59:43.436Z,25216
2016-05-19T10:00:43.985Z,25440
2016-05-19T10:01:43.784Z,25632
2016-05-19T10:02:44.334Z,25824
2016-05-19T10:03:43.600Z,25984
2016-05-19T10:04:44.667Z,26112
2016-05-19T10:05:43.808Z,26240
2016-05-19T10:06:43.780Z,26400
2016-05-19T10:07:43.627Z,26592
2016-05-19T10:08:43.676Z,26816
2016-05-19T10:09:46.166Z,27040
2016-05-19T10:10:44.293Z,27296
2016-05-19T10:11:46.827Z,27616
2016-05-19T10:12:43.905Z,27904
2016-05-19T10:13:45.911Z,28160
2016-05-19T10:14:45.523Z,28512
2016-05-19T10:15:44.729Z,28928
2016-05-19T10:16:44.763Z,29472
2016-05-19T10:17:44.624Z,30432
2016-05-19T10:18:44.124Z,34368
2016-05-19T10:19:44.221Z,41472
2016-05-19T10:20:44.446Z,47584
2016-05-19T10:21:44.588Z,49408
2016-05-19T10:22:44.654Z,50144
2016-05-19T10:23:44.734Z,50848
2016-05-19T10:24:44.612Z,50752
2016-05-19T10:25:45.818Z,50752
2016-05-19T10:26:44.556Z,51168
2016-05-19T10:27:44.823Z,51008
2016-05-19T10:28:44.779Z,50496
2016-05-19T10:29:44.814Z,50080
2016-05-19T10:30:44.909Z,50048
2016-05-19T10:31:44.628Z,50816
2016-05-19T10:32:44.962Z,52288
2016-05-19T10:33:45.043Z,53120
2016-05-19T10:34:45.420Z,53632
2016-05-19T10:35:45.158Z,53248
2016-05-19T10:36:45.160Z,48928
2016-05-19T10:37:45.147Z,48160
2016-05-19T10:38:45.369Z,47232
2016-05-19T10:39:45.325Z,48544
2016-05-19T10:40:45.421Z,47904
2016-05-19T10:41:45.408Z,41792
2016-05-19T10:42:45.458Z,38496
2016-05-19T10:43:49.647Z,38240
2016-05-19T10:44:45.588Z,42592
2016-05-19T10:45:45.638Z,45248
2016-05-19T10:46:45.391Z,42432
2016-05-19T10:47:45.721Z,42336
2016-05-19T10:48:45.786Z,37088
2016-05-19T10:49:45.804Z,34368
2016-05-19T10:50:45.854Z,32512
2016-05-19T10:51:45.904Z,31360
2016-05-19T10:52:45.829Z,31456
2016-05-19T10:53:46.096Z,33408
2016-05-19T10:54:46.052Z,36160
2016-05-19T10:55:46.196Z,33408
2016-05-19T10:56:46.182Z,32736
2016-05-19T10:57:46.216Z,48608
2016-05-19T10:58:46.282Z,35808
2016-05-19T10:59:46.332Z,51072
2016-05-19T11:00:46.256Z,50368
2016-05-19T11:01:46.259Z,47456
2016-05-19T11:02:46.464Z,56000
2016-05-19T11:03:46.498Z,47360
2016-05-19T11:04:46.563Z,41024
2016-05-19T11:05:46.613Z,41472
2016-05-19T11:06:46.663Z,42176
2016-05-19T11:07:46.619Z,42112
2016-05-19T11:08:46.622Z,37632
2016-05-19T11:09:46.858Z,47968
2016-05-19T11:10:46.860Z,43808
2016-05-19T11:11:46.910Z,35040
2016-05-19T11:12:46.945Z,33152
2016-05-19T11:13:47.041Z,35328
2016-05-19T11:14:46.872Z,36800
2016-05-19T11:15:46.968Z,39712
2016-05-19T11:16:47.002Z,40768
2016-05-19T11:17:47.035Z,50720
2016-05-19T11:18:47.257Z,49728
2016-05-19T11:19:47.307Z,32832
2016-05-19T11:20:47.372Z,40064
2016-05-19T11:21:47.953Z,34560
2016-05-19T11:22:47.471Z,41440
2016-05-19T11:23:47.584Z,25792
2016-05-19T11:24:47.555Z,24288
2016-05-19T11:25:47.573Z,29248
2016-05-19T11:26:47.638Z,23712
2016-05-19T11:27:47.782Z,22944
2016-05-19T11:28:47.676Z,22720
2016-05-19T11:29:47.834Z,23872
2016-05-19T11:30:48.431Z,23712
2016-05-19T11:31:48.151Z,22880
2016-05-19T11:32:48.670Z,22560
2016-05-19T11:33:49.844Z,22624
2016-05-19T11:34:48.472Z,22528
2016-05-19T11:35:48.100Z,22752
2016-05-19T11:36:48.009Z,22976
2016-05-19T11:37:48.199Z,23328
2016-05-19T11:38:48.780Z,24896
2016-05-19T11:39:48.172Z,26272
2016-05-19T11:40:48.347Z,25952
2016-05-19T11:41:48.398Z,25568
2016-05-19T11:42:48.728Z,25696
2016-05-19T11:43:48.371Z,26016
2016-05-19T11:44:48.530Z,26016
2016-05-19T11:45:48.580Z,25952
2016-05-19T11:46:48.699Z,26048
2016-05-19T11:47:48.741Z,25952
2016-05-19T11:48:48.831Z,25664
2016-05-19T11:49:48.953Z,25760
2016-05-19T11:50:49.026Z,26176
2016-05-19T11:51:49.125Z,27456
2016-05-19T11:52:49.188Z,34432
2016-05-19T11:53:49.065Z,29824
2016-05-19T11:54:49.394Z,44288
2016-05-19T11:55:49.208Z,53472
2016-05-19T11:56:49.530Z,31296
2016-05-19T11:57:49.335Z,30016
2016-05-19T11:58:49.405Z,29696
2016-05-19T11:59:50.492Z,30240
2016-05-19T12:00:49.469Z,31008
2016-05-19T12:01:49.849Z,49056
2016-05-19T12:02:49.728Z,32672
2016-05-19T12:03:49.857Z,36448
2016-05-19T12:04:50.971Z,49408
2016-05-19T12:05:49.867Z,60960
2016-05-19T12:06:49.917Z,59904
2016-05-19T12:07:49.827Z,67488
2016-05-19T12:08:50.111Z,67712
2016-05-19T12:09:50.083Z,67808
2016-05-19T12:10:50.150Z,67456
2016-05-19T12:11:50.199Z,69824
2016-05-19T12:12:50.109Z,68960
2016-05-19T12:13:50.330Z,70848
2016-05-19T12:14:50.677Z,67520
2016-05-19T12:15:51.166Z,52032
2016-05-19T12:16:50.324Z,53280
2016-05-19T12:17:50.499Z,59488
2016-05-19T12:18:50.533Z,55456
2016-05-19T12:19:50.566Z,59648
2016-05-19T12:20:50.709Z,67808
2016-05-19T12:21:50.696Z,78080
2016-05-19T12:22:50.590Z,79808
2016-05-19T12:23:51.124Z,78624
2016-05-19T12:24:50.751Z,79840
2016-05-19T12:25:50.910Z,78944
2016-05-19T12:26:50.945Z,78112
2016-05-19T12:27:51.073Z,77888
2016-05-19T12:28:50.950Z,79040
2016-05-19T12:29:51.421Z,63392
2016-05-19T12:30:51.159Z,51264
2016-05-19T12:31:51.349Z,41728
2016-05-19T12:32:51.148Z,39040
2016-05-19T12:33:51.182Z,46560
2016-05-19T12:34:51.122Z,51264
2016-05-19T12:35:51.469Z,55360
2016-05-19T12:36:51.503Z,54496
2016-05-19T12:37:51.568Z,68160
2016-05-19T12:38:51.664Z,65664
2016-05-19T12:39:51.651Z,74496
2016-05-19T12:40:51.717Z,75776
2016-05-19T12:41:51.642Z,72160
2016-05-19T12:42:51.863Z,64480
2016-05-19T12:43:51.881Z,52288
2016-05-19T12:44:51.930Z,70432
2016-05-19T12:45:52.042Z,70624
2016-05-19T12:46:52.061Z,62496
2016-05-19T12:47:52.110Z,61024
2016-05-19T12:48:52.191Z,40032
2016-05-19T12:49:53.866Z,43136
2016-05-19T12:50:52.260Z,52896
2016-05-19T12:51:52.887Z,70464
2016-05-19T12:52:52.077Z,71680
2016-05-19T12:53:52.471Z,72032
2016-05-19T12:54:52.488Z,73632
2016-05-19T12:55:52.601Z,74624
2016-05-19T12:56:52.479Z,73984
2016-05-19T12:57:52.653Z,73024
2016-05-19T12:58:52.735Z,67392
2016-05-19T12:59:52.799Z,31776
2016-05-19T13:00:52.833Z,30144
2016-05-19T13:01:52.898Z,29408
2016-05-19T13:02:52.963Z,29920
2016-05-19T13:03:53.012Z,31200
2016-05-19T13:04:53.062Z,32096
2016-05-19T13:05:53.128Z,48480
2016-05-19T13:06:53.178Z,36032
2016-05-19T13:07:53.212Z,37248
2016-05-19T13:08:53.417Z,36544
2016-05-19T13:09:52.951Z,36704
2016-05-19T13:10:53.469Z,59840
2016-05-19T13:11:55.034Z,54592
2016-05-19T13:12:54.209Z,65088
2016-05-19T13:13:54.197Z,68064
2016-05-19T13:14:53.699Z,64800
2016-05-19T13:15:53.638Z,63264
2016-05-19T13:16:53.657Z,35168
2016-05-19T13:17:53.770Z,33856
2016-05-19T13:18:53.631Z,38336
2016-05-19T13:19:53.963Z,47264
2016-05-19T13:20:53.918Z,47936
2016-05-19T13:21:53.796Z,30528
2016-05-19T13:22:54.017Z,27648
2016-05-19T13:23:54.535Z,26752
2016-05-19T13:24:54.116Z,26176
2016-05-19T13:25:54.213Z,26336